createdAt,value
2022-11-05T00:00:02.429Z,87.86
2022-11-05T00:05:44.264Z,87.97
2022-11-05T00:10:47.345Z,88.23
2022-11-05T00:16:08.824Z,88.62
2022-11-05T00:21:29.958Z,88.18
2022-11-05T00:26:32.631Z,88.24
2022-11-05T00:31:35.541Z,88.11
2022-11-05T00:36:38.240Z,88.11
2022-11-05T00:41:41.041Z,88.26
2022-11-05T00:46:43.715Z,88.11
2022-11-05T00:51:46.439Z,88.12
2022-11-05T00:56:49.240Z,88.30
2022-11-05T01:01:52.005Z,88.50
2022-11-05T01:06:55.545Z,88.91
2022-11-05T01:11:58.212Z,88.96
2022-11-05T01:17:00.944Z,89.01
2022-11-05T01:22:03.662Z,88.91
2022-11-05T01:27:06.547Z,89.24
2022-11-05T01:32:09.362Z,89.38
2022-11-05T01:37:12.061Z,89.58
2022-11-05T01:42:20.383Z,89.59
2022-11-05T01:47:28.199Z,89.44
2022-11-05T01:52:35.526Z,89.62
2022-11-05T01:57:38.267Z,89.81
2022-11-05T02:02:41.063Z,89.79
2022-11-05T02:07:47.189Z,89.62
2022-11-05T02:12:49.893Z,89.78
2022-11-05T02:18:20.947Z,89.87
2022-11-05T02:23:26.405Z,90.15
2022-11-05T02:28:47.282Z,90.30
2022-11-05T02:33:59.064Z,90.39
2022-11-05T02:39:48.141Z,90.36
2022-11-05T02:45:10.556Z,90.42
2022-11-05T02:51:00.337Z,90.64
2022-11-05T02:56:09.669Z,90.69
2022-11-05T03:01:13.072Z,90.77
2022-11-05T03:06:23.380Z,91.03
2022-11-05T03:11:33.226Z,90.99
2022-11-05T03:16:42.265Z,91.05
2022-11-05T03:21:50.798Z,90.97
2022-11-05T03:27:02.508Z,90.97
2022-11-05T03:32:08.126Z,91.25
2022-11-05T03:37:11.690Z,91.61
2022-11-05T03:42:18.525Z,91.57
2022-11-05T03:47:30.009Z,91.39
2022-11-05T03:52:40.559Z,91.69
2022-11-05T03:57:49.743Z,92.06
2022-11-05T04:02:52.736Z,91.99
2022-11-05T04:08:14.683Z,92.08
2022-11-05T04:13:26.926Z,92.36
2022-11-05T04:18:29.636Z,92.70
2022-11-05T04:23:51.160Z,92.77
2022-11-05T04:29:12.834Z,93.03
2022-11-05T04:34:16.629Z,93.32
2022-11-05T04:39:20.868Z,93.51
2022-11-05T04:44:23.667Z,93.93
2022-11-05T04:49:26.340Z,94.24
2022-11-05T04:54:29.055Z,94.39
2022-11-05T04:59:31.762Z,94.28
2022-11-05T05:04:34.445Z,94.62
2022-11-05T05:09:37.160Z,94.82
2022-11-05T05:14:39.903Z,95.11
2022-11-05T05:20:01.453Z,95.43
2022-11-05T05:25:04.804Z,95.76
2022-11-05T05:30:08.730Z,95.85
2022-11-05T05:35:12.168Z,96.00
2022-11-05T05:40:14.953Z,95.69
2022-11-05T05:45:17.650Z,95.82
2022-11-05T05:50:20.350Z,96.06
2022-11-05T05:55:23.129Z,95.91
2022-11-05T06:00:25.877Z,95.94
2022-11-05T06:05:28.660Z,95.69
2022-11-05T06:10:31.590Z,95.62
2022-11-05T06:15:36.038Z,95.79
2022-11-05T06:20:39.066Z,95.46
2022-11-05T06:25:41.755Z,95.58
2022-11-05T06:30:50.760Z,95.59
2022-11-05T06:35:54.375Z,95.27
2022-11-05T06:41:04.570Z,95.37
2022-11-05T06:46:12.315Z,95.44
2022-11-05T06:51:15.597Z,95.44
2022-11-05T06:56:18.375Z,95.41
2022-11-05T07:01:21.484Z,95.42
2022-11-05T07:06:24.323Z,95.34
2022-11-05T07:11:26.971Z,95.35
2022-11-05T07:16:29.881Z,95.27
2022-11-05T07:21:32.549Z,95.25
2022-11-05T07:26:35.396Z,95.38
2022-11-05T07:31:38.093Z,95.24
2022-11-05T07:36:40.898Z,95.62
2022-11-05T07:41:43.594Z,95.60
2022-11-05T07:46:46.388Z,95.65
2022-11-05T07:51:49.095Z,95.85
2022-11-05T07:56:51.835Z,96.01
2022-11-05T08:01:54.704Z,96.18
2022-11-05T08:06:57.702Z,96.36
2022-11-05T08:12:03.070Z,96.55
2022-11-05T08:17:06.173Z,96.37
2022-11-05T08:22:08.976Z,96.65
2022-11-05T08:27:11.688Z,96.94
2022-11-05T08:32:15.092Z,96.67
2022-11-05T08:37:17.988Z,96.99
2022-11-05T08:42:20.799Z,97.47
2022-11-05T08:47:23.802Z,97.35
2022-11-05T08:52:26.481Z,97.61
2022-11-05T08:57:29.188Z,97.79
2022-11-05T09:02:31.937Z,97.99
2022-11-05T09:07:34.703Z,98.06
2022-11-05T09:12:37.604Z,98.03
2022-11-05T09:17:41.033Z,98.15
2022-11-05T09:22:43.819Z,98.36
2022-11-05T09:27:46.504Z,98.54
2022-11-05T09:32:49.321Z,98.39
2022-11-05T09:37:55.546Z,98.43
2022-11-05T09:43:02.138Z,98.46
2022-11-05T09:48:15.863Z,98.75
2022-11-05T09:53:20.331Z,98.65
2022-11-05T09:58:35.383Z,98.64
2022-11-05T10:03:44.806Z,98.95
2022-11-05T10:08:52.806Z,99.36
2022-11-05T10:14:12.663Z,98.85
2022-11-05T10:19:25.625Z,99.11
2022-11-05T10:24:28.536Z,99.48
2022-11-05T10:29:34.546Z,99.46
2022-11-05T10:34:39.636Z,99.56
2022-11-05T10:39:42.438Z,99.60
2022-11-05T10:44:55.125Z,99.55
2022-11-05T10:50:01.970Z,99.39
2022-11-05T10:55:16.751Z,99.38
2022-11-05T11:00:21.864Z,99.45
2022-11-05T11:05:33.662Z,99.64
2022-11-05T11:10:43.058Z,99.70
2022-11-05T11:15:45.769Z,99.92
2022-11-05T11:20:48.470Z,99.95
2022-11-05T11:26:00.929Z,99.92
2022-11-05T11:31:14.238Z,100.00
2022-11-05T11:36:19.700Z,99.82
2022-11-05T11:41:30.165Z,99.53
2022-11-05T11:46:35.384Z,99.81
2022-11-05T11:51:49.449Z,99.01
2022-11-05T11:56:52.773Z,99.40
2022-11-05T12:02:17.935Z,98.76
2022-11-05T12:08:13.390Z,98.86
2022-11-05T12:13:18.940Z,98.81
2022-11-05T12:18:59.151Z,98.17
2022-11-05T12:24:34.376Z,97.77
2022-11-05T12:30:11.910Z,97.63
2022-11-05T12:35:32.865Z,97.09
2022-11-05T12:40:38.404Z,96.89
2022-11-05T12:45:51.756Z,96.44
2022-11-05T12:51:36.139Z,96.36
2022-11-05T12:56:50.019Z,96.62
2022-11-05T13:02:06.273Z,96.29
2022-11-05T13:07:13.765Z,96.83
2022-11-05T13:12:20.825Z,97.06
2022-11-05T13:17:54.052Z,96.91
2022-11-05T13:23:40.039Z,97.30
2022-11-05T13:28:54.116Z,97.14
2022-11-05T13:33:57.754Z,96.78
2022-11-05T13:39:13.372Z,96.94
2022-11-05T13:44:44.133Z,97.07
2022-11-05T13:50:22.211Z,97.63
2022-11-05T13:55:33.984Z,97.13
2022-11-05T14:00:48.921Z,96.96
2022-11-05T14:06:04.116Z,97.32
2022-11-05T14:11:21.349Z,97.21
2022-11-05T14:16:29.581Z,97.00
2022-11-05T14:21:47.433Z,97.06
2022-11-05T14:27:02.426Z,97.34
2022-11-05T14:32:26.218Z,96.93
2022-11-05T14:37:50.625Z,97.14
2022-11-05T14:43:03.008Z,97.12
2022-11-05T14:48:23.550Z,97.28
2022-11-05T14:53:39.339Z,97.25
2022-11-05T14:58:43.945Z,97.54
2022-11-05T15:04:16.481Z,97.66
2022-11-05T15:09:29.229Z,97.98
2022-11-05T15:14:36.829Z,98.14
2022-11-05T15:19:41.437Z,98.03
2022-11-05T15:24:44.158Z,98.17
2022-11-05T15:29:46.996Z,98.16
2022-11-05T15:34:54.753Z,98.45
2022-11-05T15:39:57.612Z,98.58
2022-11-05T15:45:00.435Z,98.43
2022-11-05T15:50:14.644Z,98.63
2022-11-05T15:55:22.736Z,98.58
2022-11-05T16:00:28.282Z,98.76
2022-11-05T16:05:34.369Z,98.74
2022-11-05T16:10:38.806Z,98.71
2022-11-05T16:15:53.893Z,98.75
2022-11-05T16:21:08.175Z,98.60
2022-11-05T16:32:05.696Z,98.58
2022-11-05T16:37:13.506Z,98.82
2022-11-05T16:42:22.383Z,99.16
2022-11-05T16:47:26.592Z,98.67
2022-11-05T16:52:29.580Z,98.81
2022-11-05T16:57:33.014Z,98.87
2022-11-05T17:02:35.796Z,98.92
2022-11-05T17:07:41.394Z,98.63
2022-11-05T17:12:45.350Z,98.87
2022-11-05T17:17:48.707Z,98.91
2022-11-05T17:22:51.386Z,99.22
2022-11-05T17:27:55.865Z,98.93
2022-11-05T17:32:59.215Z,98.84
2022-11-05T17:38:02.068Z,98.66
2022-11-05T17:43:05.728Z,98.42
2022-11-05T17:48:10.138Z,98.68
2022-11-05T17:53:14.041Z,99.04
2022-11-05T17:58:17.468Z,98.88
2022-11-05T18:03:20.146Z,99.26
2022-11-05T18:08:23.088Z,99.35
2022-11-05T18:13:25.810Z,99.41
2022-11-05T18:18:28.536Z,99.24
2022-11-05T18:23:31.288Z,98.89
2022-11-05T18:28:34.088Z,99.18
2022-11-05T18:33:36.889Z,99.35
2022-11-05T18:38:39.691Z,99.34
2022-11-05T18:43:42.763Z,99.06
2022-11-05T18:48:45.500Z,99.37
2022-11-05T18:53:48.203Z,99.58
2022-11-05T18:59:14.781Z,99.51
2022-11-05T19:04:16.414Z,99.79
2022-11-05T19:09:19.130Z,99.85
2022-11-05T19:14:21.794Z,99.95
2022-11-05T19:19:24.916Z,100.00
2022-11-05T19:24:28.081Z,100.00
2022-11-05T19:29:30.848Z,100.00
2022-11-05T19:34:33.545Z,100.00
2022-11-05T19:39:36.347Z,100.00
2022-11-05T19:44:39.045Z,100.00
2022-11-05T19:49:41.742Z,100.00
2022-11-05T19:54:46.081Z,100.00
2022-11-05T19:59:50.517Z,100.00
2022-11-05T20:04:53.325Z,100.00
2022-11-05T20:09:56.093Z,100.00
2022-11-05T20:14:58.777Z,100.00
2022-11-05T20:20:01.613Z,100.00
2022-11-05T20:25:04.915Z,100.00
2022-11-05T20:30:08.501Z,100.00
2022-11-05T20:35:11.334Z,100.00
2022-11-05T20:40:14.288Z,100.00
2022-11-05T20:45:17.044Z,100.00
2022-11-05T20:50:19.721Z,100.00
2022-11-05T20:55:22.465Z,100.00
2022-11-05T21:00:25.147Z,100.00
2022-11-05T21:05:32.722Z,100.00
2022-11-05T21:10:38.088Z,100.00
2022-11-05T21:15:49.240Z,100.00
2022-11-05T21:20:52.430Z,100.00
2022-11-05T21:25:55.794Z,100.00
2022-11-05T21:31:03.354Z,100.00
2022-11-05T21:36:09.316Z,100.00
2022-11-05T21:41:12.766Z,100.00
2022-11-05T21:46:15.464Z,100.00
2022-11-05T21:51:37.087Z,100.00
2022-11-05T21:56:58.580Z,100.00
2022-11-05T22:02:01.921Z,100.00
2022-11-05T22:07:06.298Z,100.00
2022-11-05T22:12:09.737Z,100.00
2022-11-05T22:17:13.750Z,100.00
2022-11-05T22:22:16.766Z,100.00
2022-11-05T22:27:23.843Z,100.00
2022-11-05T22:32:26.656Z,100.00
2022-11-05T22:37:29.352Z,100.00
2022-11-05T22:42:32.549Z,100.00
2022-11-05T22:47:35.675Z,100.00
2022-11-05T22:52:38.442Z,99.96
2022-11-05T22:57:41.178Z,99.92
2022-11-05T23:02:44.268Z,99.93
2022-11-05T23:08:19.647Z,99.86
2022-11-05T23:13:22.347Z,99.87
2022-11-05T23:18:43.682Z,99.99
2022-11-05T23:24:04.291Z,100.00
2022-11-05T23:29:06.978Z,100.00
2022-11-05T23:34:09.803Z,100.00
2022-11-05T23:39:12.604Z,99.98
2022-11-05T23:44:33.790Z,100.00
2022-11-05T23:49:36.536Z,99.77
2022-11-05T23:54:39.215Z,99.90
2022-11-05T23:59:41.919Z,99.59
